Time;durP1;ratioP1;P1;durP2;ratioP2;P2;SDS_P1;SDS_P2;PMS_P1;PMS_P2;Temp;Humidity;BMP_temperature;BMP_pressure;BME280_temperature;BME280_humidity;BME280_pressure;Samples;Min_cycle;Max_cycle;Signal;HPM_P1;HPM_P2
2022/07/09 00:00:09;;;;;;;3.60;3.30;;;;;;;22.43;68.07;99347.78;5083020;28;20020;-43
2022/07/09 00:02:34;;;;;;;3.35;3.05;;;;;;;22.70;66.81;99362.59;5090245;28;20031;-43
2022/07/09 00:05:00;;;;;;;3.88;3.20;;;;;;;23.03;66.47;99349.09;5090627;28;20031;-43
2022/07/09 00:07:26;;;;;;;3.97;3.30;;;;;;;22.80;66.77;99351.56;5089934;28;20031;-46
2022/07/09 00:09:52;;;;;;;3.53;3.22;;;;;;;22.62;67.61;99350.50;5090566;28;20457;-44
2022/07/09 00:12:17;;;;;;;4.18;3.25;;;;;;;22.56;67.52;99345.41;5090488;28;20108;-43
2022/07/09 00:14:43;;;;;;;4.63;3.35;;;;;;;22.56;67.79;99343.53;5090363;28;20023;-44
2022/07/09 00:17:08;;;;;;;4.93;3.90;;;;;;;22.53;68.15;99344.09;5090514;28;20020;-45
2022/07/09 00:19:34;;;;;;;4.00;3.60;;;;;;;22.75;66.24;99332.69;5089437;28;20028;-45
2022/07/09 00:21:59;;;;;;;4.88;3.90;;;;;;;22.39;68.26;99344.03;5090371;28;20028;-43
2022/07/09 00:24:24;;;;;;;4.38;3.92;;;;;;;22.35;69.22;99353.84;5089692;28;20035;-43
2022/07/09 00:26:50;;;;;;;4.32;3.78;;;;;;;22.50;69.42;99343.88;5089407;28;20156;-43
2022/07/09 00:29:15;;;;;;;4.20;3.80;;;;;;;22.74;68.59;99331.06;5089578;28;20390;-44
2022/07/09 00:31:40;;;;;;;4.40;4.00;;;;;;;23.16;66.87;99334.78;5089637;28;20645;-44
2022/07/09 00:34:06;;;;;;;5.10;4.28;;;;;;;22.22;70.04;99341.78;5089544;28;20024;-43
2022/07/09 00:36:31;;;;;;;5.60;4.10;;;;;;;22.18;70.76;99334.50;5089460;28;20057;-43
2022/07/09 00:38:57;;;;;;;4.38;3.97;;;;;;;22.31;70.05;99336.53;5088892;28;20020;-43
2022/07/09 00:41:22;;;;;;;5.32;4.13;;;;;;;22.42;69.99;99343.44;5088823;28;20020;-43
2022/07/09 00:43:50;;;;;;;4.60;4.20;;;;;;;22.38;69.69;99334.28;5089537;28;20091;-43
2022/07/09 00:46:16;;;;;;;6.03;4.90;;;;;;;22.29;70.03;99336.00;5089201;28;20024;-43
2022/07/09 00:48:41;;;;;;;6.25;4.70;;;;;;;22.04;71.23;99331.69;5089678;28;20534;-43
2022/07/09 00:51:08;;;;;;;5.20;4.70;;;;;;;22.22;71.19;99330.13;5089292;28;20119;-43
2022/07/09 00:53:34;;;;;;;6.40;4.38;;;;;;;22.48;69.55;99332.53;5088834;28;20407;-42
2022/07/09 00:56:01;;;;;;;5.72;4.20;;;;;;;22.69;69.00;99325.69;5089219;28;20148;-43
2022/07/09 00:58:27;;;;;;;5.45;4.43;;;;;;;22.56;68.94;99319.13;5088552;28;20020;-43
2022/07/09 01:00:54;;;;;;;5.40;4.65;;;;;;;22.45;69.26;99304.91;5068606;28;20032;-43
2022/07/09 01:03:19;;;;;;;5.35;4.25;;;;;;;22.24;69.65;99320.63;5068993;28;20029;-43
2022/07/09 01:05:45;;;;;;;5.55;4.40;;;;;;;22.42;68.55;99320.94;5069452;28;20032;-43
2022/07/09 01:08:11;;;;;;;5.43;4.10;;;;;;;22.55;67.85;99301.25;5069187;28;20472;-45
2022/07/09 01:10:37;;;;;;;9.80;8.07;;;;;;;22.79;67.22;99308.47;5068820;28;20036;-43
2022/07/09 01:13:04;;;;;;;9.80;8.80;;;;;;;22.33;68.96;99314.56;5068577;28;20024;-43
2022/07/09 01:15:29;;;;;;;9.20;6.38;;;;;;;22.15;69.63;99305.28;5069039;28;20628;-43
2022/07/09 01:17:57;;;;;;;4.93;4.43;;;;;;;22.47;68.18;99306.53;5068336;28;20070;-44
2022/07/09 01:20:23;;;;;;;7.97;4.43;;;;;;;22.25;69.12;99313.31;5068851;28;20030;-44
2022/07/09 01:22:49;;;;;;;5.50;4.30;;;;;;;22.52;67.00;99309.94;5068395;28;20035;-42
2022/07/09 01:25:17;;;;;;;4.95;4.15;;;;;;;22.50;68.05;99317.56;5067807;28;20508;-43
2022/07/09 01:27:42;;;;;;;5.53;4.38;;;;;;;22.31;68.56;99314.84;5068724;28;20028;-43
2022/07/09 01:30:08;;;;;;;4.65;4.22;;;;;;;22.31;68.20;99316.75;5069006;28;20032;-45
2022/07/09 01:32:33;;;;;;;4.95;4.35;;;;;;;22.41;67.77;99320.16;5067436;28;20092;-43
2022/07/09 01:34:59;;;;;;;6.35;4.45;;;;;;;22.50;67.07;99320.28;5069338;28;20029;-43
2022/07/09 01:37:24;;;;;;;4.40;4.00;;;;;;;22.37;67.61;99329.97;5067769;28;20036;-46
2022/07/09 01:39:50;;;;;;;6.13;4.25;;;;;;;22.01;69.49;99321.47;5069100;28;20045;-45
2022/07/09 01:42:17;;;;;;;6.25;4.05;;;;;;;22.21;68.59;99332.03;5069048;28;20031;-43
2022/07/09 01:44:42;;;;;;;5.30;3.92;;;;;;;22.04;69.36;99321.66;5067694;28;20393;-44
2022/07/09 01:47:08;;;;;;;5.13;4.28;;;;;;;22.14;68.85;99331.59;5069339;28;20036;-43
2022/07/09 01:49:33;;;;;;;4.35;3.88;;;;;;;22.14;68.10;99336.19;5069463;28;20060;-44
2022/07/09 01:51:58;;;;;;;4.80;4.20;;;;;;;21.72;71.06;99327.72;5069438;28;20032;-44
2022/07/09 01:54:24;;;;;;;5.32;4.20;;;;;;;21.92;69.81;99332.09;5069582;28;20044;-44
2022/07/09 01:56:49;;;;;;;5.18;4.35;;;;;;;22.05;69.32;99339.53;5072705;28;20024;-43
2022/07/09 01:59:15;;;;;;;5.13;4.43;;;;;;;22.24;68.82;99330.66;5079808;28;20043;-44
2022/07/09 02:01:40;;;;;;;4.65;4.20;;;;;;;22.62;67.09;99328.81;5093797;28;20024;-43
2022/07/09 02:04:05;;;;;;;6.78;4.50;;;;;;;22.08;69.47;99330.03;5093683;28;20364;-43
2022/07/09 02:06:31;;;;;;;5.75;4.68;;;;;;;22.14;69.74;99328.88;5093407;28;20024;-43
2022/07/09 02:08:56;;;;;;;6.35;4.60;;;;;;;22.11;69.98;99325.94;5093857;28;20081;-44
2022/07/09 02:11:22;;;;;;;5.68;4.20;;;;;;;22.19;69.68;99322.56;5093669;28;20028;-43
2022/07/09 02:13:47;;;;;;;4.47;4.07;;;;;;;22.69;67.40;99327.63;5093633;28;20028;-44
2022/07/09 02:16:12;;;;;;;5.28;4.55;;;;;;;22.53;67.63;99325.13;5093528;28;20123;-44
2022/07/09 02:18:38;;;;;;;5.80;4.00;;;;;;;22.32;69.00;99326.53;5092522;28;20079;-44
2022/07/09 02:21:05;;;;;;;4.65;4.20;;;;;;;22.20;68.71;99325.00;5093511;28;20046;-44
2022/07/09 02:23:30;;;;;;;5.28;4.30;;;;;;;22.40;68.08;99326.66;5093505;28;20027;-43
2022/07/09 02:25:55;;;;;;;4.65;3.90;;;;;;;22.37;67.88;99321.00;5092855;28;20024;-43
2022/07/09 02:28:21;;;;;;;4.55;4.15;;;;;;;22.92;65.64;99317.78;5093557;28;20101;-44
2022/07/09 02:30:46;;;;;;;5.03;4.00;;;;;;;22.46;67.00;99305.69;5093123;28;20024;-44
2022/07/09 02:33:12;;;;;;;5.40;3.88;;;;;;;22.32;67.20;99311.06;5093070;28;20012;-43
2022/07/09 02:35:37;;;;;;;4.70;4.18;;;;;;;22.36;67.57;99319.41;5093308;28;20027;-44
2022/07/09 02:38:03;;;;;;;6.22;3.90;;;;;;;22.47;67.23;99318.16;5092255;28;20130;-43
2022/07/09 02:40:28;;;;;;;5.13;3.90;;;;;;;22.72;66.18;99317.00;5092814;28;20022;-44
2022/07/09 02:42:53;;;;;;;4.32;3.70;;;;;;;22.30;67.28;99313.25;5093386;28;20028;-43
2022/07/09 02:45:19;;;;;;;5.80;4.07;;;;;;;22.17;68.25;99317.44;5092636;28;20032;-44
2022/07/09 02:47:45;;;;;;;8.52;3.70;;;;;;;22.23;68.33;99318.19;5091589;28;20391;-44
2022/07/09 02:50:10;;;;;;;4.53;3.92;;;;;;;22.40;67.52;99315.81;5092047;28;20445;-43
2022/07/09 02:52:36;;;;;;;6.10;3.90;;;;;;;22.95;65.20;99315.28;5092315;28;20087;-43
2022/07/09 02:55:01;;;;;;;5.13;4.00;;;;;;;22.61;66.03;99313.63;5092243;28;20024;-46
2022/07/09 02:57:27;;;;;;;4.43;3.80;;;;;;;22.41;66.78;99309.31;5091796;28;20484;-43
2022/07/09 02:59:52;;;;;;;4.25;3.90;;;;;;;22.44;66.48;99316.03;5092183;28;20080;-44
2022/07/09 03:02:17;;;;;;;5.18;3.85;;;;;;;22.37;66.83;99312.88;5092387;28;20016;-42
2022/07/09 03:04:43;;;;;;;5.80;4.00;;;;;;;22.96;64.06;99308.75;5092554;28;20502;-42
2022/07/09 03:07:08;;;;;;;5.22;3.80;;;;;;;22.46;65.58;99305.69;5091556;28;20032;-45
2022/07/09 03:09:34;;;;;;;4.20;3.80;;;;;;;22.43;66.35;99303.59;5092126;28;20024;-44
2022/07/09 03:11:59;;;;;;;4.72;3.75;;;;;;;22.41;65.57;99300.38;5091673;28;20016;-43
2022/07/09 03:14:24;;;;;;;4.07;3.30;;;;;;;22.62;64.72;99300.88;5091571;28;20031;-43
2022/07/09 03:16:50;;;;;;;4.10;3.60;;;;;;;22.90;63.60;99301.78;5092273;28;20016;-43
2022/07/09 03:19:15;;;;;;;3.83;3.40;;;;;;;22.52;64.31;99301.81;5091232;28;20480;-38
2022/07/09 03:21:41;;;;;;;3.88;3.47;;;;;;;22.57;64.43;99298.25;5092157;28;20016;-38
2022/07/09 03:24:08;;;;;;;4.63;3.20;;;;;;;22.71;63.93;99295.59;5092229;28;20387;-38
2022/07/09 03:26:33;;;;;;;3.55;3.25;;;;;;;22.85;63.44;99301.88;5091426;28;20031;-38
2022/07/09 03:28:59;;;;;;;5.93;3.75;;;;;;;23.23;61.78;99297.22;5091560;28;20024;-35
2022/07/09 03:31:24;;;;;;;6.68;4.40;;;;;;;22.87;62.76;99299.69;5091454;28;20038;-36
2022/07/09 03:33:53;;;;;;;4.55;3.65;;;;;;;22.98;62.41;99301.13;5091801;28;20016;-37
2022/07/09 03:36:19;;;;;;;4.37;3.77;;;;;;;22.97;62.70;99307.66;5092082;28;20016;-37
2022/07/09 03:38:44;;;;;;;4.65;3.70;;;;;;;23.25;62.03;99307.78;5091184;28;20319;-37
2022/07/09 03:41:09;;;;;;;4.30;3.50;;;;;;;23.73;60.21;99307.41;5082267;28;20364;-37
2022/07/09 03:43:35;;;;;;;5.18;3.50;;;;;;;23.57;61.27;99298.78;5070991;28;20115;-36
2022/07/09 03:46:00;;;;;;;5.32;3.40;;;;;;;23.64;61.37;99301.06;5071290;28;20023;-37
2022/07/09 03:48:26;;;;;;;5.32;3.20;;;;;;;23.90;59.71;99298.69;5071285;28;20110;-37
2022/07/09 03:50:51;;;;;;;3.17;2.80;;;;;;;23.73;58.90;99304.69;5071205;28;20020;-37
2022/07/09 03:53:16;;;;;;;3.42;3.08;;;;;;;23.89;58.47;99297.06;5071084;28;20017;-37
2022/07/09 03:55:42;;;;;;;3.38;3.08;;;;;;;24.06;58.57;99301.09;5072142;28;20488;-42
2022/07/09 03:58:08;;;;;;;3.78;3.08;;;;;;;24.35;57.45;99308.91;5071860;28;20048;-37
2022/07/09 04:00:33;;;;;;;3.15;2.85;;;;;;;24.34;57.44;99302.66;5089574;28;20412;-37
2022/07/09 04:02:59;;;;;;;4.10;3.13;;;;;;;24.51;56.88;99304.78;5090614;28;20039;-37
2022/07/09 04:05:24;;;;;;;5.50;3.08;;;;;;;24.40;56.76;99317.75;5091226;28;20100;-37
2022/07/09 04:07:50;;;;;;;3.53;2.95;;;;;;;24.55;56.51;99311.19;5091639;28;20028;-43
2022/07/09 04:10:15;;;;;;;3.92;3.28;;;;;;;24.77;56.25;99315.06;5090890;28;20455;-43
2022/07/09 04:12:41;;;;;;;3.35;3.05;;;;;;;24.46;56.74;99314.94;5091973;28;20024;-41
2022/07/09 04:15:07;;;;;;;3.63;3.25;;;;;;;24.69;55.97;99316.59;5057174;28;20035;-43
2022/07/09 04:17:34;;;;;;;3.40;3.10;;;;;;;24.87;55.36;99314.81;5090882;28;20028;-42
2022/07/09 04:19:59;;;;;;;5.18;3.22;;;;;;;25.01;55.02;99322.13;5091770;28;20111;-43
2022/07/09 04:22:26;;;;;;;3.90;2.92;;;;;;;24.83;55.76;99319.28;5091670;28;20111;-38
2022/07/09 04:24:51;;;;;;;3.35;2.80;;;;;;;25.02;54.92;99312.81;5091128;28;20024;-39
2022/07/09 04:27:17;;;;;;;4.03;3.05;;;;;;;24.77;55.50;99320.50;5091778;28;20043;-37
2022/07/09 04:29:42;;;;;;;4.95;2.90;;;;;;;24.54;55.45;99323.19;5091822;28;20051;-43
2022/07/09 04:32:08;;;;;;;6.20;2.90;;;;;;;24.50;55.70;99322.19;5090915;28;20032;-37
2022/07/09 04:34:34;;;;;;;3.72;2.72;;;;;;;23.89;57.14;99324.25;5090844;28;20035;-37
2022/07/09 04:36:59;;;;;;;3.85;2.90;;;;;;;24.28;56.77;99324.84;5090644;28;20024;-37
2022/07/09 04:39:24;;;;;;;3.58;3.10;;;;;;;24.50;56.84;99319.47;5090471;28;20097;-36
2022/07/09 04:41:51;;;;;;;4.93;3.72;;;;;;;24.69;55.95;99318.50;5090322;28;20027;-37
2022/07/09 04:44:16;;;;;;;3.40;3.10;;;;;;;24.52;56.34;99320.00;5090010;28;20020;-36
2022/07/09 04:46:43;;;;;;;3.10;2.70;;;;;;;24.43;56.39;99331.84;5088932;28;20016;-37
2022/07/09 04:49:09;;;;;;;4.70;3.10;;;;;;;24.33;56.52;99317.38;5089772;28;20055;-37
2022/07/09 04:51:35;;;;;;;4.70;3.33;;;;;;;24.08;57.36;99320.63;5090320;28;20021;-37
2022/07/09 04:54:00;;;;;;;5.38;3.40;;;;;;;24.23;57.15;99316.78;5080448;28;20036;-37
2022/07/09 04:56:26;;;;;;;4.35;3.88;;;;;;;24.54;56.28;99317.75;5069790;28;20021;-38
2022/07/09 04:58:51;;;;;;;4.63;3.20;;;;;;;24.46;56.39;99323.06;5070243;28;20111;-36
2022/07/09 05:01:23;;;;;;;4.50;3.03;;;;;;;24.45;56.74;99324.22;5089303;28;20016;-38
2022/07/09 05:03:49;;;;;;;4.05;2.80;;;;;;;24.35;56.26;99315.16;5089680;28;20020;-38
2022/07/09 05:06:16;;;;;;;3.65;2.80;;;;;;;24.64;56.07;99327.59;5089823;28;20555;-36
2022/07/09 05:08:41;;;;;;;5.88;2.90;;;;;;;24.83;55.39;99319.28;5089329;28;20063;-38
2022/07/09 05:11:07;;;;;;;3.55;2.92;;;;;;;25.14;53.71;99322.03;5089909;28;20056;-37
2022/07/09 05:13:32;;;;;;;3.40;3.10;;;;;;;25.54;52.96;99321.34;5089788;28;20051;-38
2022/07/09 05:15:58;;;;;;;3.63;2.90;;;;;;;25.29;53.54;99325.53;5089365;28;20034;-44
2022/07/09 05:18:23;;;;;;;3.38;2.90;;;;;;;24.82;54.15;99325.81;5089034;28;20020;-44
2022/07/09 05:20:49;;;;;;;3.67;2.80;;;;;;;24.87;54.38;99322.19;5088984;28;20144;-43
2022/07/09 05:23:14;;;;;;;3.50;2.80;;;;;;;25.06;54.08;99327.44;5088898;28;20466;-43
2022/07/09 05:25:39;;;;;;;4.03;2.78;;;;;;;25.21;53.72;99327.06;5088996;28;20023;-43
2022/07/09 05:28:05;;;;;;;3.63;3.15;;;;;;;25.59;52.58;99329.38;5088106;28;20023;-44
2022/07/09 05:30:36;;;;;;;5.72;4.28;;;;;;;24.83;54.69;99313.00;5089732;28;20020;-37
2022/07/09 05:33:03;;;;;;;3.30;2.92;;;;;;;24.56;55.39;99331.84;5089285;28;20031;-39
2022/07/09 05:35:28;;;;;;;4.88;2.88;;;;;;;24.83;54.81;99322.00;5083419;28;20028;-38
2022/07/09 05:37:53;;;;;;;3.72;3.00;;;;;;;25.02;54.46;99332.69;5074195;28;20087;-38
2022/07/09 05:40:19;;;;;;;4.15;3.47;;;;;;;25.55;53.28;99334.66;5085591;28;20030;-37
2022/07/09 05:42:44;;;;;;;4.50;3.10;;;;;;;25.73;53.02;99329.28;5068653;28;20032;-37
2022/07/09 05:45:10;;;;;;;4.38;3.05;;;;;;;25.24;54.19;99333.81;5077485;28;20666;-43
2022/07/09 05:47:35;;;;;;;5.78;4.22;;;;;;;25.25;54.21;99330.00;5076778;28;20040;-43
2022/07/09 05:50:01;;;;;;;4.43;3.30;;;;;;;25.34;54.53;99334.38;5083603;28;20046;-43
2022/07/09 05:52:26;;;;;;;5.65;3.33;;;;;;;25.49;52.97;99335.09;5069625;28;20135;-43
2022/07/09 05:54:52;;;;;;;6.82;3.30;;;;;;;25.27;53.45;99334.00;5068781;28;20017;-44
2022/07/09 05:57:18;;;;;;;3.33;2.80;;;;;;;25.75;52.23;99327.81;5068730;28;20115;-43
2022/07/09 05:59:44;;;;;;;4.43;2.80;;;;;;;24.95;54.12;99332.31;5080550;28;20129;-44
2022/07/09 06:02:09;;;;;;;5.40;2.83;;;;;;;24.94;54.63;99331.53;5088636;28;20031;-46
2022/07/09 06:04:34;;;;;;;29.27;23.08;;;;;;;24.91;54.54;99326.69;5089228;28;20095;-45
2022/07/09 06:07:00;;;;;;;28.63;21.63;;;;;;;25.14;53.90;99318.53;5089129;28;20388;-45
2022/07/09 06:09:25;;;;;;;3.60;2.78;;;;;;;25.12;53.54;99324.28;5087916;28;20024;-43
2022/07/09 06:11:51;;;;;;;6.47;3.00;;;;;;;25.47;52.65;99323.69;5080549;28;20024;-46
2022/07/09 06:14:17;;;;;;;4.20;2.90;;;;;;;25.02;53.67;99319.09;5078329;28;20027;-44
2022/07/09 06:16:42;;;;;;;5.22;2.90;;;;;;;25.09;54.21;99322.19;5078447;28;20149;-43
2022/07/09 06:19:08;;;;;;;4.95;2.60;;;;;;;24.97;54.57;99320.00;5078838;28;20043;-44
2022/07/09 06:21:33;;;;;;;6.25;2.83;;;;;;;25.22;53.92;99323.22;5075225;28;20618;-44
2022/07/09 06:23:59;;;;;;;6.35;4.60;;;;;;;25.37;53.82;99322.03;5076942;28;20119;-45
2022/07/09 06:26:24;;;;;;;5.38;3.58;;;;;;;26.03;52.11;99314.00;5077657;28;20547;-46
2022/07/09 06:28:49;;;;;;;4.82;3.33;;;;;;;25.42;54.06;99311.03;5076266;28;20480;-44
2022/07/09 06:31:15;;;;;;;5.60;3.00;;;;;;;25.64;53.08;99312.09;5075924;28;20464;-45
2022/07/09 06:33:40;;;;;;;5.40;2.95;;;;;;;25.64;52.52;99304.69;5077662;28;20115;-43
2022/07/09 06:36:06;;;;;;;4.90;3.00;;;;;;;25.46;53.64;99297.59;5078277;28;20043;-43
2022/07/09 06:38:32;;;;;;;3.58;3.03;;;;;;;25.85;53.16;99309.59;5077817;28;20024;-44
2022/07/09 06:40:58;;;;;;;4.35;2.70;;;;;;;25.83;52.50;99304.44;5081173;28;20455;-46
2022/07/09 06:43:23;;;;;;;4.25;2.90;;;;;;;25.94;52.46;99307.72;5081691;28;20048;-43
2022/07/09 06:45:48;;;;;;;3.30;3.00;;;;;;;25.79;52.69;99306.22;5081316;28;20054;-46
2022/07/09 06:48:14;;;;;;;4.53;3.00;;;;;;;25.87;52.76;99296.44;5081726;28;20028;-44
2022/07/09 06:50:39;;;;;;;6.18;2.78;;;;;;;25.81;53.44;99295.00;5081909;28;20048;-42
2022/07/09 06:53:05;;;;;;;4.90;3.00;;;;;;;25.74;53.60;99288.09;5081937;28;20085;-43
2022/07/09 06:55:30;;;;;;;7.60;3.40;;;;;;;25.81;53.69;99293.06;5082954;28;20467;-44
2022/07/09 06:57:57;;;;;;;4.95;3.40;;;;;;;25.97;53.15;99289.94;5081719;28;20103;-44
2022/07/09 07:00:23;;;;;;;5.95;3.00;;;;;;;25.88;52.64;99290.69;5083709;28;20016;-44
2022/07/09 07:02:49;;;;;;;4.53;3.10;;;;;;;25.77;53.30;99283.94;5082488;28;20043;-44
2022/07/09 07:05:15;;;;;;;5.10;3.00;;;;;;;26.06;53.11;99288.03;5080747;28;20020;-43
2022/07/09 07:07:40;;;;;;;3.92;3.50;;;;;;;25.89;52.45;99294.22;5082243;28;20487;-45
2022/07/09 07:10:06;;;;;;;4.82;4.32;;;;;;;26.07;52.38;99293.16;5082601;28;20017;-45
2022/07/09 07:12:31;;;;;;;10.93;8.90;;;;;;;26.09;51.96;99292.88;5080659;28;20012;-43
2022/07/09 07:14:57;;;;;;;8.13;4.38;;;;;;;26.11;51.87;99293.34;5082582;28;20020;-43
2022/07/09 07:17:22;;;;;;;8.90;3.30;;;;;;;26.13;51.75;99291.91;5081825;28;20492;-43
2022/07/09 07:19:48;;;;;;;3.60;3.10;;;;;;;26.14;51.49;99301.69;5080748;28;20012;-42
2022/07/09 07:22:13;;;;;;;4.65;3.25;;;;;;;26.25;50.97;99293.19;5080606;28;20070;-42
2022/07/09 07:24:39;;;;;;;4.50;3.30;;;;;;;26.33;50.92;99303.31;5081837;28;20020;-43
2022/07/09 07:27:04;;;;;;;4.60;3.08;;;;;;;26.50;50.86;99314.25;5081442;28;20153;-44
2022/07/09 07:29:30;;;;;;;4.10;3.40;;;;;;;26.36;51.00;99302.69;5084051;28;20028;-43
2022/07/09 07:31:57;;;;;;;5.45;3.10;;;;;;;26.36;50.77;99305.41;5081220;28;20016;-46
2022/07/09 07:34:24;;;;;;;6.28;3.25;;;;;;;26.60;50.17;99296.78;5081567;28;20024;-44
2022/07/09 07:36:51;;;;;;;4.97;3.20;;;;;;;26.59;50.46;99300.63;5082284;28;20115;-44
2022/07/09 07:39:17;;;;;;;5.80;3.10;;;;;;;26.61;50.95;99301.13;5079984;28;20107;-42
2022/07/09 07:41:42;;;;;;;3.78;3.30;;;;;;;26.48;51.04;99305.59;5081388;28;20099;-42
2022/07/09 07:44:07;;;;;;;6.80;3.50;;;;;;;26.87;49.95;99301.09;5080165;28;20013;-44
2022/07/09 07:46:33;;;;;;;4.28;3.30;;;;;;;27.19;49.75;99301.69;5079616;28;20027;-44
2022/07/09 07:48:58;;;;;;;5.47;3.50;;;;;;;27.40;48.88;99303.78;5080929;28;20085;-46
2022/07/09 07:51:24;;;;;;;4.57;2.90;;;;;;;27.92;47.16;99300.81;5069963;28;20051;-44
2022/07/09 07:53:50;;;;;;;3.95;3.08;;;;;;;28.16;47.49;99294.75;5068641;28;20024;-44
2022/07/09 07:56:15;;;;;;;6.00;3.50;;;;;;;28.53;46.65;99303.19;5069399;28;20027;-44
2022/07/09 07:58:41;;;;;;;4.38;3.25;;;;;;;28.48;46.14;99300.59;5067804;28;20103;-43
2022/07/09 08:01:06;;;;;;;3.45;2.92;;;;;;;28.46;45.77;99292.75;5066888;28;20089;-47
2022/07/09 08:03:32;;;;;;;8.20;3.25;;;;;;;28.46;46.02;99302.88;5068860;28;20404;-43
2022/07/09 08:05:57;;;;;;;3.63;3.13;;;;;;;27.99;46.27;99301.13;5068165;28;20024;-44
2022/07/09 08:08:23;;;;;;;3.83;2.90;;;;;;;28.01;46.61;99301.59;5068818;28;20108;-42
2022/07/09 08:10:49;;;;;;;5.63;3.00;;;;;;;28.24;46.19;99296.59;5069344;28;20237;-43
2022/07/09 08:13:15;;;;;;;5.85;2.97;;;;;;;28.23;45.76;99296.94;5068941;28;20013;-41
2022/07/09 08:15:41;;;;;;;5.43;3.17;;;;;;;27.88;47.53;99295.22;5069178;28;20507;-42
2022/07/09 08:18:08;;;;;;;6.13;3.13;;;;;;;28.14;46.23;99298.91;5068789;28;20016;-42
2022/07/09 08:20:36;;;;;;;5.60;3.05;;;;;;;28.05;46.64;99290.78;5067936;28;20035;-43
2022/07/09 08:23:02;;;;;;;3.53;2.90;;;;;;;28.26;45.33;99293.53;5068578;28;20139;-42
2022/07/09 08:25:27;;;;;;;4.55;2.80;;;;;;;28.38;44.79;99293.59;5068480;28;20032;-47
2022/07/09 08:27:53;;;;;;;6.13;3.15;;;;;;;28.65;44.40;99292.31;5068893;28;20086;-47
2022/07/09 08:30:18;;;;;;;5.90;3.47;;;;;;;27.97;46.35;99289.72;5068634;28;20031;-43
2022/07/09 08:32:44;;;;;;;6.20;3.00;;;;;;;28.61;44.49;99291.34;5069009;28;20020;-43
2022/07/09 08:35:10;;;;;;;7.72;3.10;;;;;;;28.44;44.70;99291.47;5067276;28;20024;-43
2022/07/09 08:37:35;;;;;;;4.28;2.90;;;;;;;28.32;44.65;99296.88;5067487;28;20028;-44
2022/07/09 08:40:01;;;;;;;5.65;3.10;;;;;;;28.43;44.80;99298.88;5068659;28;20033;-44
2022/07/09 08:42:27;;;;;;;4.88;3.08;;;;;;;28.81;43.77;99300.69;5068356;28;20020;-43
2022/07/09 08:44:54;;;;;;;5.85;3.15;;;;;;;28.89;42.41;99296.28;5068459;28;20032;-43
2022/07/09 08:47:21;;;;;;;3.25;2.90;;;;;;;28.89;43.15;99303.69;5068193;28;20109;-46
2022/07/09 08:49:48;;;;;;;5.90;3.08;;;;;;;29.15;42.81;99285.09;5068096;28;20098;-45
2022/07/09 08:52:16;;;;;;;3.95;3.17;;;;;;;29.14;42.74;99286.22;5066919;28;20432;-44
2022/07/09 08:54:44;;;;;;;6.50;3.00;;;;;;;29.08;42.54;99287.56;5068227;28;20034;-45
2022/07/09 08:57:09;;;;;;;4.53;3.03;;;;;;;29.15;42.68;99278.78;5068446;28;20052;-45
2022/07/09 08:59:34;;;;;;;3.95;2.83;;;;;;;29.05;42.92;99285.47;5077456;28;20082;-43
2022/07/09 09:02:04;;;;;;;4.47;3.13;;;;;;;29.26;42.42;99284.66;5088413;28;20055;-45
2022/07/09 09:04:30;;;;;;;7.75;3.00;;;;;;;28.83;43.49;99268.31;5087955;28;20024;-44
2022/07/09 09:06:55;;;;;;;5.82;2.88;;;;;;;28.88;43.78;99288.38;5087975;28;20050;-43
2022/07/09 09:09:21;;;;;;;5.35;3.13;;;;;;;28.99;43.02;99282.16;5088076;28;20031;-44
2022/07/09 09:11:49;;;;;;;5.40;3.60;;;;;;;29.04;43.46;99279.19;5088002;28;20103;-43
2022/07/09 09:14:21;;;;;;;4.65;3.40;;;;;;;28.83;44.35;99290.22;5087943;28;20024;-45
2022/07/09 09:16:47;;;;;;;4.32;3.30;;;;;;;28.60;44.25;99281.56;5088405;28;20089;-45
2022/07/09 09:19:13;;;;;;;5.25;3.55;;;;;;;29.13;43.40;99276.41;5088458;28;20024;-42
2022/07/09 09:21:39;;;;;;;5.28;2.88;;;;;;;28.97;42.91;99269.94;5087968;28;20020;-41
2022/07/09 09:24:05;;;;;;;3.45;2.90;;;;;;;28.88;42.70;99271.97;5088008;28;20475;-43
2022/07/09 09:26:30;;;;;;;3.55;3.17;;;;;;;28.32;44.01;99280.47;5089432;28;20036;-43
2022/07/09 09:29:00;;;;;;;5.38;3.10;;;;;;;28.38;44.51;99281.88;5089277;28;20133;-44
2022/07/09 09:31:33;;;;;;;5.10;3.00;;;;;;;28.67;43.81;99286.47;5089513;28;20107;-43
2022/07/09 09:34:04;;;;;;;6.57;3.10;;;;;;;28.65;43.78;99291.50;5088647;28;20086;-43
2022/07/09 09:36:37;;;;;;;4.97;3.17;;;;;;;28.16;44.60;99285.72;5088800;28;20061;-43
2022/07/09 09:39:12;;;;;;;4.47;3.20;;;;;;;28.51;43.69;99286.28;5088923;28;20086;-45
2022/07/09 09:41:37;;;;;;;4.75;3.30;;;;;;;28.43;44.21;99289.88;5088852;28;20081;-43
2022/07/09 09:44:08;;;;;;;4.97;3.13;;;;;;;28.42;44.17;99288.28;5088451;28;20028;-44
2022/07/09 09:46:34;;;;;;;6.93;3.20;;;;;;;28.20;44.72;99281.22;5088821;28;20113;-43
2022/07/09 09:49:02;;;;;;;3.60;3.25;;;;;;;28.26;44.35;99288.88;5088615;28;20424;-45
2022/07/09 09:51:30;;;;;;;7.60;3.40;;;;;;;28.65;43.87;99294.22;5088693;28;20059;-44
2022/07/09 09:53:57;;;;;;;6.60;3.10;;;;;;;28.13;44.81;99283.66;5088441;28;20054;-44
2022/07/09 09:56:24;;;;;;;4.55;3.08;;;;;;;28.07;45.11;99278.38;5088945;28;20093;-43
2022/07/09 09:58:50;;;;;;;7.63;3.55;;;;;;;28.71;43.84;99294.81;5085199;28;20047;-43
2022/07/09 10:01:16;;;;;;;5.00;3.60;;;;;;;28.57;44.29;99284.16;5068731;28;20060;-44
2022/07/09 10:03:41;;;;;;;6.07;3.20;;;;;;;28.47;44.17;99282.59;5068267;28;20472;-44
2022/07/09 10:06:07;;;;;;;5.97;3.38;;;;;;;28.71;43.71;99283.88;5068638;28;20079;-43
2022/07/09 10:08:32;;;;;;;4.80;3.40;;;;;;;28.94;43.32;99285.13;5068378;28;20059;-43
2022/07/09 10:10:58;;;;;;;3.95;3.20;;;;;;;28.92;43.46;99278.38;5068546;28;20035;-45
2022/07/09 10:13:23;;;;;;;3.78;3.10;;;;;;;28.92;42.73;99272.88;5066993;28;20032;-43
2022/07/09 10:15:50;;;;;;;5.82;3.28;;;;;;;28.85;42.57;99285.19;5069443;28;20450;-43
2022/07/09 10:18:19;;;;;;;3.33;3.03;;;;;;;28.64;42.83;99287.97;5072482;28;20078;-44
2022/07/09 10:20:45;;;;;;;5.45;3.40;;;;;;;28.80;42.46;99285.41;5072402;28;20017;-44
2022/07/09 10:23:29;;;;;;;6.05;3.13;;;;;;;28.77;42.88;99277.88;5072188;28;20075;-43
2022/07/09 10:25:57;;;;;;;3.88;3.10;;;;;;;29.18;42.04;99267.97;5072168;28;20025;-42
2022/07/09 10:28:24;;;;;;;7.40;3.43;;;;;;;29.09;42.54;99269.16;5072316;28;20491;-43
2022/07/09 10:30:50;;;;;;;5.20;3.20;;;;;;;29.27;41.61;99270.63;5072246;28;20389;-44
2022/07/09 10:33:24;;;;;;;3.65;3.35;;;;;;;29.22;41.43;99273.56;5072142;28;20056;-44
2022/07/09 10:35:57;;;;;;;5.70;3.20;;;;;;;28.85;41.63;99268.75;5072092;28;20035;-43
2022/07/09 10:38:34;;;;;;;4.95;3.30;;;;;;;28.48;42.82;99267.78;5072752;28;20032;-44
2022/07/09 10:41:00;;;;;;;8.32;3.45;;;;;;;28.42;42.12;99274.59;5072676;28;20119;-44
2022/07/09 10:43:45;;;;;;;3.63;3.33;;;;;;;28.74;43.01;99273.06;5072518;28;20475;-43
2022/07/09 10:46:15;;;;;;;4.07;3.00;;;;;;;28.69;43.20;99284.19;5072690;28;20024;-43
2022/07/09 10:48:41;;;;;;;3.60;3.30;;;;;;;29.03;42.33;99265.84;5079354;28;20020;-44
2022/07/09 10:51:07;;;;;;;5.68;3.92;;;;;;;29.12;41.37;99269.28;5092716;28;20039;-43
2022/07/09 10:53:32;;;;;;;3.85;3.53;;;;;;;29.45;41.08;99265.72;5092486;28;20035;-44
2022/07/09 10:55:59;;;;;;;5.38;3.10;;;;;;;29.76;40.61;99265.19;5091911;28;20127;-42
2022/07/09 10:58:26;;;;;;;4.82;3.30;;;;;;;29.28;41.27;99265.94;5091191;28;20108;-43
2022/07/09 11:00:56;;;;;;;3.38;3.08;;;;;;;28.82;42.60;99266.69;5070755;28;20131;-44
2022/07/09 11:03:25;;;;;;;8.00;3.50;;;;;;;28.59;43.19;99262.72;5070890;28;20031;-44
2022/07/09 11:05:51;;;;;;;6.13;3.40;;;;;;;28.67;43.50;99267.31;5071398;28;20050;-45
2022/07/09 11:08:16;;;;;;;4.28;3.20;;;;;;;28.82;42.38;99261.22;5070964;28;20492;-42
2022/07/09 11:10:42;;;;;;;5.30;3.20;;;;;;;28.93;42.33;99264.34;5071199;28;20020;-42
2022/07/09 11:13:11;;;;;;;4.93;3.47;;;;;;;29.34;41.52;99265.38;5070963;28;20099;-44
2022/07/09 11:15:37;;;;;;;;;;;;;;;29.16;42.04;99263.97;5071303;28;20158;-43
2022/07/09 11:18:05;;;;;;;3.55;3.10;;;;;;;28.73;42.65;99259.69;5070962;28;20256;-43
2022/07/09 11:20:45;;;;;;;6.40;3.58;;;;;;;28.59;42.92;99262.72;5070751;28;20016;-43
2022/07/09 11:23:14;;;;;;;7.32;4.78;;;;;;;28.63;42.67;99250.75;5070773;28;20672;-44
2022/07/09 11:25:41;;;;;;;7.07;4.20;;;;;;;28.84;42.27;99248.00;5070678;28;20103;-44
2022/07/09 11:28:06;;;;;;;4.43;4.00;;;;;;;29.20;41.53;99249.25;5071003;28;20020;-43